Ana Sayfa
METAR-TAF:

METAR-TAF

Havaalanları :

Fort Belvoir, Virginia, Amerika Birleşik Devletleri

Enlem: 38-43N, Boylam: 077-11W, yükseklik: 21 m

Güncel hava durumu gözlemi

Rapor saat 07:56 UTC de 50 dakika önce yapıldı.
Sakin rüzgar
Sıcaklık 17°C
Nem 82%
Basınç 1022 hPa
Görüş mesafesi: 16.1 km
2400 ft yükseklikte çok bulutlu

METAR: KDAA 250756Z AUTO 00000KT 10SM OVC024 17/14 A3018 RMK AO2 SLP223 T01650141 TSNO $

Saat: 04:46 (08:46 UTC)


TAF: eksik

4.000'den fazla havaalanı için hava durumu gözlemleri ve tahminleri (METAR ve TAF raporları).

Kullanılabilir istasyonlar harita üzerinde sarı ve kırmızı noktalarla gösterilir.

İstasyonun adını görmek için fareyi noktanın üzerinde gezdirin.

Sonrasında hava gözlem ve tahminlerini görmek için tıklayın.

Haritayı değiştirmek için: yaklaştırmak için siyah artı işaretli yeşil düğmeye ve uzaklaştırmak için de eksi işaretli düğmeye hızla tıklayın; bitişik haritalar için yeşil okları kullanın.


METAR-TAF: